Time;durP1;ratioP1;P1;durP2;ratioP2;P2;SDS_P1;SDS_P2;PMS_P1;PMS_P2;Temp;Humidity;BMP_temperature;BMP_pressure;BME280_temperature;BME280_humidity;BME280_pressure;Samples;Min_cycle;Max_cycle;Signal;HPM_P1;HPM_P2
2023/12/05 00:02:09;;;;;;;1.10;0.60;;;7.70;99.90;;;;;;5054312;28;20045;-80
2023/12/05 00:04:37;;;;;;;1.67;0.82;;;7.70;99.90;;;;;;5033319;28;20050;-80
2023/12/05 00:07:04;;;;;;;1.20;0.60;;;7.70;99.90;;;;;;5051131;28;20045;-79
2023/12/05 00:09:31;;;;;;;0.75;0.50;;;7.70;99.90;;;;;;5054223;28;20053;-82
2023/12/05 00:11:58;;;;;;;1.55;0.80;;;7.70;99.90;;;;;;5052625;28;20050;-80
2023/12/05 00:14:25;;;;;;;0.95;0.70;;;7.70;99.90;;;;;;5050436;28;20045;-79
2023/12/05 00:16:51;;;;;;;1.42;0.82;;;7.70;99.90;;;;;;5052792;28;20111;-78
2023/12/05 00:19:18;;;;;;;1.30;0.60;;;7.70;99.90;;;;;;5051940;28;20053;-78
2023/12/05 00:21:45;;;;;;;1.05;0.70;;;7.70;99.90;;;;;;5049814;28;20533;-78
2023/12/05 00:24:12;;;;;;;0.90;0.60;;;7.70;99.90;;;;;;5050721;28;20048;-79
2023/12/05 00:26:39;;;;;;;2.70;0.70;;;7.70;99.90;;;;;;5050793;28;20067;-78
2023/12/05 00:29:06;;;;;;;1.85;0.73;;;7.70;99.90;;;;;;5049841;28;20128;-83
2023/12/05 00:31:32;;;;;;;0.85;0.70;;;7.70;99.90;;;;;;5050425;28;20049;-79
2023/12/05 00:33:59;;;;;;;0.82;0.50;;;7.70;99.90;;;;;;5050926;28;20045;-79
2023/12/05 00:36:26;;;;;;;0.50;0.40;;;7.70;99.90;;;;;;5045556;28;20467;-80
2023/12/05 00:38:53;;;;;;;0.50;0.50;;;7.70;99.90;;;;;;5048719;28;20045;-78
2023/12/05 00:41:19;;;;;;;0.50;0.50;;;7.70;99.90;;;;;;5048733;28;20041;-78
2023/12/05 00:43:46;;;;;;;0.50;0.50;;;7.70;99.90;;;;;;5051213;28;20057;-83
2023/12/05 00:46:13;;;;;;;2.45;0.75;;;7.60;99.90;;;;;;5056679;28;20056;-80
2023/12/05 00:48:40;;;;;;;0.65;0.60;;;7.60;99.90;;;;;;5044831;28;20500;-78
2023/12/05 00:51:07;;;;;;;2.45;0.60;;;7.60;99.90;;;;;;5053535;28;20049;-80
2023/12/05 00:53:33;;;;;;;0.75;0.68;;;7.60;99.90;;;;;;5051542;28;20126;-78
2023/12/05 00:56:00;;;;;;;2.35;0.85;;;7.60;99.90;;;;;;5047922;28;20053;-78
2023/12/05 00:58:27;;;;;;;0.65;0.50;;;7.60;99.90;;;;;;5052891;28;20049;-80
2023/12/05 01:00:53;;;;;;;0.50;0.50;;;7.60;99.90;;;;;;5055863;28;20485;-79
2023/12/05 01:03:20;;;;;;;0.50;0.50;;;7.60;99.90;;;;;;5059133;28;20056;-79
2023/12/05 01:05:48;;;;;;;1.08;0.73;;;7.60;99.90;;;;;;5054342;28;20049;-80
2023/12/05 01:08:15;;;;;;;2.10;0.70;;;7.70;99.90;;;;;;5060218;28;20472;-78
2023/12/05 01:10:41;;;;;;;0.40;0.40;;;7.70;99.90;;;;;;5056936;28;20094;-82
2023/12/05 01:13:08;;;;;;;0.45;0.43;;;7.70;99.90;;;;;;5053829;28;20524;-80
2023/12/05 01:15:36;;;;;;;1.85;0.65;;;7.70;99.90;;;;;;5034302;28;20049;-83
2023/12/05 01:18:02;;;;;;;0.95;0.60;;;7.70;99.90;;;;;;5047739;28;20048;-80
2023/12/05 01:20:30;;;;;;;1.00;0.50;;;7.70;99.90;;;;;;5034575;28;20575;-79
2023/12/05 01:22:57;;;;;;;1.70;0.60;;;7.70;99.90;;;;;;5032347;28;20517;-79
2023/12/05 01:25:24;;;;;;;0.65;0.52;;;7.70;99.90;;;;;;5052450;28;20578;-80
2023/12/05 01:27:51;;;;;;;0.52;0.52;;;7.70;99.90;;;;;;5043809;28;20049;-78
2023/12/05 01:30:19;;;;;;;0.95;0.70;;;7.70;99.90;;;;;;5052139;28;20052;-80
2023/12/05 01:32:45;;;;;;;0.50;0.50;;;7.70;99.90;;;;;;5043433;28;20076;-78
2023/12/05 01:35:12;;;;;;;2.75;0.70;;;7.70;99.90;;;;;;5051214;28;20218;-79
2023/12/05 01:37:39;;;;;;;1.38;0.68;;;7.70;99.90;;;;;;5045662;28;20106;-78
2023/12/05 01:40:09;;;;;;;0.85;0.60;;;7.70;99.90;;;;;;5028803;28;20054;-78
2023/12/05 01:42:36;;;;;;;3.80;0.95;;;7.70;99.90;;;;;;5048878;28;20495;-81
2023/12/05 01:45:07;;;;;;;0.80;0.70;;;7.70;99.90;;;;;;5046569;28;20052;-80
2023/12/05 01:47:35;;;;;;;0.90;0.75;;;7.70;99.90;;;;;;5048401;28;20053;-78
2023/12/05 01:50:10;;;;;;;1.33;0.50;;;7.60;99.90;;;;;;5043373;28;20056;-78
2023/12/05 01:52:45;;;;;;;1.95;0.73;;;7.70;99.90;;;;;;5052558;28;20051;-80
2023/12/05 01:55:11;;;;;;;0.88;0.80;;;7.60;99.90;;;;;;5046114;28;20053;-78
2023/12/05 01:57:38;;;;;;;2.47;1.00;;;7.60;99.90;;;;;;5032140;28;20040;-78
2023/12/05 02:00:07;;;;;;;1.05;0.63;;;7.60;99.90;;;;;;5045109;28;20049;-78
2023/12/05 02:02:35;;;;;;;0.60;0.60;;;7.60;99.90;;;;;;5050356;28;20041;-78
2023/12/05 02:05:03;;;;;;;4.22;0.73;;;7.50;99.90;;;;;;5052581;28;20064;-82
2023/12/05 02:07:31;;;;;;;2.75;0.60;;;7.50;99.90;;;;;;5050055;28;20075;-79
2023/12/05 02:09:58;;;;;;;1.42;0.80;;;7.50;99.90;;;;;;5050689;28;20076;-82
2023/12/05 02:12:24;;;;;;;0.65;0.50;;;7.50;99.90;;;;;;5053578;28;20041;-80
2023/12/05 02:14:51;;;;;;;2.67;0.60;;;7.40;99.90;;;;;;5051557;28;20056;-79
2023/12/05 02:17:31;;;;;;;0.95;0.80;;;7.40;99.90;;;;;;5048029;28;20077;-78
2023/12/05 02:20:20;;;;;;;1.63;0.75;;;7.40;99.90;;;;;;5045481;28;20044;-79
2023/12/05 02:22:59;;;;;;;2.03;0.70;;;7.40;99.90;;;;;;5046718;28;20152;-78
2023/12/05 02:25:57;;;;;;;0.82;0.50;;;7.30;99.90;;;;;;5041270;28;20048;-78
2023/12/05 02:28:24;;;;;;;1.00;0.70;;;7.30;99.90;;;;;;5045447;28;20049;-77
2023/12/05 02:30:52;;;;;;;0.90;0.55;;;7.30;99.90;;;;;;5048540;28;20060;-78
2023/12/05 02:33:19;;;;;;;2.33;1.00;;;7.30;99.90;;;;;;5034859;28;20131;-78
2023/12/05 02:36:09;;;;;;;1.00;0.80;;;7.30;99.90;;;;;;5051906;28;20493;-77
2023/12/05 02:38:39;;;;;;;;;;;7.30;99.90;;;;;;5055693;28;20041;-81
2023/12/05 02:41:18;;;;;;;3.08;0.80;;;7.30;99.90;;;;;;5054408;28;19927;-79
2023/12/05 02:43:57;;;;;;;2.17;0.80;;;7.30;99.90;;;;;;5055431;28;20041;-80
2023/12/05 02:46:24;;;;;;;2.97;0.97;;;7.20;99.90;;;;;;5044272;28;20052;-78
2023/12/05 02:48:53;;;;;;;2.00;0.77;;;7.20;99.90;;;;;;5056302;28;20101;-78
2023/12/05 02:51:20;;;;;;;1.40;0.75;;;7.20;99.90;;;;;;5056804;28;20457;-77
2023/12/05 02:53:47;;;;;;;0.80;0.43;;;7.20;99.90;;;;;;5051702;28;20092;-78
2023/12/05 02:56:14;;;;;;;2.25;0.70;;;7.20;99.90;;;;;;5049089;28;20056;-79
2023/12/05 02:58:41;;;;;;;4.43;0.63;;;7.10;99.90;;;;;;5050152;28;20041;-80
2023/12/05 03:01:09;;;;;;;3.38;0.80;;;7.10;99.90;;;;;;5049209;28;20096;-79
2023/12/05 03:03:35;;;;;;;2.17;0.93;;;7.10;99.90;;;;;;5053186;28;20045;-79
2023/12/05 03:06:02;;;;;;;1.23;0.70;;;7.10;99.90;;;;;;5054782;28;20087;-77
2023/12/05 03:08:29;;;;;;;1.42;0.60;;;7.10;99.90;;;;;;5055460;28;20132;-78
2023/12/05 03:10:56;;;;;;;1.25;0.80;;;7.10;99.90;;;;;;5053622;28;20053;-78
2023/12/05 03:13:32;;;;;;;3.25;0.98;;;7.10;99.90;;;;;;5049594;28;20169;-78
2023/12/05 03:15:59;;;;;;;1.58;0.70;;;7.10;99.90;;;;;;5050405;28;20053;-79
2023/12/05 03:18:25;;;;;;;1.63;0.80;;;7.10;99.90;;;;;;5048949;28;20072;-77
2023/12/05 03:20:52;;;;;;;5.20;0.93;;;7.10;99.90;;;;;;5053579;28;20519;-78
2023/12/05 03:23:19;;;;;;;0.57;0.57;;;7.10;99.90;;;;;;5048380;28;20040;-79
2023/12/05 03:25:46;;;;;;;2.17;1.10;;;7.00;99.90;;;;;;5055628;28;20049;-80
2023/12/05 03:28:13;;;;;;;3.10;0.80;;;7.00;99.90;;;;;;5050358;28;20052;-79
2023/12/05 03:30:39;;;;;;;2.67;0.93;;;7.00;99.90;;;;;;5054955;28;20052;-77
2023/12/05 03:33:06;;;;;;;3.10;0.80;;;7.10;99.90;;;;;;5052340;28;20045;-80
2023/12/05 03:35:33;;;;;;;3.40;1.17;;;7.10;99.90;;;;;;5033337;28;20068;-77
2023/12/05 03:38:00;;;;;;;1.67;1.15;;;7.10;99.90;;;;;;5053614;28;20103;-78
2023/12/05 03:40:27;;;;;;;3.50;1.15;;;7.10;99.90;;;;;;5051972;28;20071;-83
2023/12/05 03:42:53;;;;;;;2.80;0.70;;;7.10;99.90;;;;;;5056190;28;20493;-77
2023/12/05 03:45:20;;;;;;;3.65;0.85;;;7.10;99.90;;;;;;5047450;28;20072;-77
2023/12/05 03:47:47;;;;;;;2.40;0.75;;;7.20;99.90;;;;;;5052592;28;20037;-78
2023/12/05 03:50:14;;;;;;;1.48;0.70;;;7.20;99.90;;;;;;5047128;28;20056;-77
2023/12/05 03:52:41;;;;;;;2.47;1.08;;;7.20;99.90;;;;;;5052980;28;20566;-78
2023/12/05 03:55:08;;;;;;;4.85;1.30;;;7.20;99.90;;;;;;5052141;28;20137;-78
2023/12/05 03:57:34;;;;;;;2.85;0.80;;;7.30;99.90;;;;;;5052343;28;20449;-77
2023/12/05 04:00:02;;;;;;;2.35;0.85;;;7.20;99.90;;;;;;5047606;28;20063;-81
2023/12/05 04:02:29;;;;;;;2.15;0.60;;;7.30;99.90;;;;;;5051768;28;20037;-81
2023/12/05 04:04:56;;;;;;;1.50;0.70;;;7.30;99.90;;;;;;5051201;28;20416;-77
2023/12/05 04:07:23;;;;;;;3.03;1.02;;;7.30;99.90;;;;;;5049962;28;20115;-77
2023/12/05 04:09:49;;;;;;;2.33;0.90;;;7.30;99.90;;;;;;5052023;28;20051;-79
2023/12/05 04:12:16;;;;;;;2.25;0.90;;;7.30;99.90;;;;;;5030221;28;20089;-78
2023/12/05 04:14:43;;;;;;;2.25;0.88;;;7.30;99.90;;;;;;5050802;28;20049;-77
2023/12/05 04:17:10;;;;;;;4.88;1.13;;;7.30;99.90;;;;;;5025383;28;20112;-80
2023/12/05 04:19:37;;;;;;;2.25;0.95;;;7.30;99.90;;;;;;5049941;28;20041;-82
2023/12/05 04:22:03;;;;;;;7.95;1.27;;;7.30;99.90;;;;;;5048928;28;20095;-81
2023/12/05 04:24:30;;;;;;;2.03;0.85;;;7.30;99.90;;;;;;5056053;28;20041;-82
2023/12/05 04:26:57;;;;;;;1.77;1.00;;;7.30;99.90;;;;;;5051653;28;20072;-78
2023/12/05 04:29:24;;;;;;;5.57;1.05;;;7.30;99.90;;;;;;5054117;28;20098;-79
2023/12/05 04:31:51;;;;;;;1.90;0.90;;;7.30;99.90;;;;;;5047956;28;20094;-80
2023/12/05 04:34:17;;;;;;;4.47;1.25;;;7.30;99.90;;;;;;5048773;28;20088;-79
2023/12/05 04:36:44;;;;;;;4.07;0.93;;;7.30;99.90;;;;;;5033708;28;20382;-78
2023/12/05 04:39:12;;;;;;;2.35;0.82;;;7.30;99.90;;;;;;5052359;28;20517;-81
2023/12/05 04:41:39;;;;;;;7.05;1.38;;;7.30;99.90;;;;;;5055235;28;20456;-80
2023/12/05 04:44:06;;;;;;;1.58;0.80;;;7.30;99.90;;;;;;5049531;28;20045;-81
2023/12/05 04:46:37;;;;;;;3.80;1.05;;;7.30;99.90;;;;;;5049232;28;20198;-82
2023/12/05 04:49:05;;;;;;;3.50;1.02;;;7.30;99.90;;;;;;5046313;28;20148;-79
2023/12/05 04:51:32;;;;;;;2.28;1.00;;;7.30;99.90;;;;;;5046443;28;20080;-79
2023/12/05 04:53:59;;;;;;;6.60;1.08;;;7.30;99.90;;;;;;5049105;28;20049;-78
2023/12/05 04:56:26;;;;;;;4.25;1.05;;;7.30;99.90;;;;;;5051139;28;20041;-80
2023/12/05 04:58:53;;;;;;;3.08;1.10;;;7.30;99.90;;;;;;5045812;28;20132;-81
2023/12/05 05:01:20;;;;;;;2.03;0.80;;;7.30;99.90;;;;;;5049258;28;20049;-79
2023/12/05 05:03:47;;;;;;;3.22;0.90;;;7.30;99.90;;;;;;5050851;28;20098;-78
2023/12/05 05:06:14;;;;;;;7.00;1.35;;;7.30;99.90;;;;;;5050907;28;20113;-86
2023/12/05 05:08:41;;;;;;;1.27;1.17;;;7.30;99.90;;;;;;5061397;28;20051;-78
2023/12/05 05:11:07;;;;;;;2.95;1.08;;;7.30;99.90;;;;;;5053125;28;20053;-80
2023/12/05 05:13:34;;;;;;;2.70;0.85;;;7.20;99.90;;;;;;5034527;28;20091;-80
2023/12/05 05:16:11;;;;;;;4.95;1.10;;;7.20;99.90;;;;;;5052768;28;20097;-79
2023/12/05 05:18:38;;;;;;;4.18;1.00;;;7.20;99.90;;;;;;5053936;28;20041;-83
2023/12/05 05:21:05;;;;;;;2.50;1.10;;;7.20;99.90;;;;;;5048098;28;20037;-82
2023/12/05 05:23:33;;;;;;;5.43;1.70;;;7.30;99.90;;;;;;5050888;28;20045;-81
2023/12/05 05:26:00;;;;;;;1.25;0.90;;;7.30;99.90;;;;;;5047621;28;20044;-80
2023/12/05 05:28:27;;;;;;;3.90;0.98;;;7.30;99.90;;;;;;5052572;28;20052;-81
2023/12/05 05:30:54;;;;;;;5.85;1.05;;;7.30;99.90;;;;;;5051099;28;20462;-81
2023/12/05 05:33:21;;;;;;;6.10;1.92;;;7.30;99.90;;;;;;5052920;28;20057;-81
2023/12/05 05:35:48;;;;;;;3.55;0.93;;;7.30;99.90;;;;;;5049693;28;20040;-80
2023/12/05 05:38:15;;;;;;;3.03;0.98;;;7.30;99.90;;;;;;5058339;28;20479;-79
2023/12/05 05:40:42;;;;;;;5.43;1.23;;;7.30;99.90;;;;;;5049359;28;20048;-80
2023/12/05 05:43:09;;;;;;;2.03;0.90;;;7.30;99.90;;;;;;5052581;28;20069;-81
2023/12/05 05:45:36;;;;;;;1.30;0.73;;;7.30;99.90;;;;;;5051807;28;20190;-81
2023/12/05 05:48:03;;;;;;;1.83;0.80;;;7.30;99.90;;;;;;5051581;28;20049;-82
2023/12/05 05:50:30;;;;;;;3.75;1.40;;;7.30;99.90;;;;;;5051567;28;20045;-82
2023/12/05 05:52:56;;;;;;;5.53;0.98;;;7.30;99.90;;;;;;5049061;28;20467;-82
2023/12/05 05:55:24;;;;;;;6.93;2.42;;;7.30;99.90;;;;;;5048510;28;20106;-83
2023/12/05 05:57:52;;;;;;;4.30;1.20;;;7.30;99.90;;;;;;5045028;28;20049;-81
2023/12/05 06:00:19;;;;;;;4.60;1.30;;;7.30;99.90;;;;;;5051979;28;20056;-80
2023/12/05 06:02:46;;;;;;;6.20;1.13;;;7.30;99.90;;;;;;5048817;28;20515;-81
2023/12/05 06:05:13;;;;;;;3.42;0.90;;;7.30;99.90;;;;;;5049102;28;20052;-80
2023/12/05 06:07:40;;;;;;;4.93;0.80;;;7.30;99.90;;;;;;5047674;28;20528;-82
2023/12/05 06:10:07;;;;;;;4.25;0.95;;;7.30;99.90;;;;;;5051402;28;20055;-82
2023/12/05 06:12:33;;;;;;;4.75;1.60;;;7.30;99.90;;;;;;5050882;28;20052;-79
2023/12/05 06:15:00;;;;;;;8.27;1.95;;;7.20;99.90;;;;;;5044053;28;20048;-82
2023/12/05 06:17:27;;;;;;;3.28;0.70;;;7.20;99.90;;;;;;5046068;28;20049;-79
2023/12/05 06:19:54;;;;;;;2.28;1.02;;;7.20;99.90;;;;;;5051375;28;20124;-81
2023/12/05 06:22:20;;;;;;;2.85;0.90;;;7.10;99.90;;;;;;5049141;28;20424;-80
2023/12/05 06:24:47;;;;;;;2.00;1.27;;;7.10;99.90;;;;;;5051075;28;20040;-80
2023/12/05 06:27:14;;;;;;;1.70;0.63;;;7.10;99.90;;;;;;5044936;28;20048;-79
2023/12/05 06:29:41;;;;;;;1.08;0.90;;;7.10;99.90;;;;;;5048666;28;20053;-84
2023/12/05 06:32:07;;;;;;;1.90;0.70;;;7.10;99.90;;;;;;5049321;28;20045;-80
2023/12/05 06:34:34;;;;;;;5.18;0.88;;;7.10;99.90;;;;;;5048175;28;20091;-78
2023/12/05 06:37:01;;;;;;;3.40;1.00;;;7.10;99.90;;;;;;5049752;28;20041;-83
2023/12/05 06:39:28;;;;;;;1.98;1.00;;;7.10;99.90;;;;;;5049142;28;20413;-82
2023/12/05 06:41:55;;;;;;;3.97;0.95;;;7.10;99.90;;;;;;5049480;28;20115;-84
2023/12/05 06:44:22;;;;;;;3.92;1.92;;;7.10;99.90;;;;;;5046365;28;20096;-81
2023/12/05 06:46:49;;;;;;;2.17;1.08;;;7.10;99.90;;;;;;5051346;28;20099;-80
2023/12/05 06:49:15;;;;;;;2.03;0.98;;;7.10;99.90;;;;;;5048343;28;20056;-80
2023/12/05 06:51:42;;;;;;;3.55;1.27;;;7.10;99.90;;;;;;5053793;28;20102;-79
2023/12/05 06:54:09;;;;;;;3.47;1.10;;;7.10;99.90;;;;;;5050550;28;20320;-80
2023/12/05 06:56:36;;;;;;;2.25;0.68;;;7.10;99.90;;;;;;5051398;28;20488;-82
2023/12/05 06:59:03;;;;;;;3.03;0.70;;;7.10;99.90;;;;;;5047669;28;20099;-80
2023/12/05 07:01:30;;;;;;;1.58;0.85;;;7.10;99.90;;;;;;5030521;28;20049;-79
2023/12/05 07:04:00;;;;;;;14.35;4.68;;;7.10;99.90;;;;;;5050084;28;20045;-82
2023/12/05 07:06:27;;;;;;;2.88;1.13;;;7.10;99.90;;;;;;5032348;28;20094;-80
2023/12/05 07:08:53;;;;;;;2.53;1.00;;;7.10;99.90;;;;;;5050886;28;20196;-79
2023/12/05 07:11:20;;;;;;;2.15;0.80;;;7.10;99.90;;;;;;5027412;28;20046;-81
2023/12/05 07:13:48;;;;;;;2.42;0.70;;;7.20;99.90;;;;;;5053996;28;20183;-80
2023/12/05 07:16:14;;;;;;;4.57;0.95;;;7.20;99.90;;;;;;5043997;28;20076;-81
2023/12/05 07:18:41;;;;;;;1.23;0.73;;;7.20;99.90;;;;;;5045277;28;20095;-80
2023/12/05 07:21:08;;;;;;;2.13;0.90;;;7.20;99.90;;;;;;5052041;28;20108;-81
2023/12/05 07:23:36;;;;;;;3.22;0.70;;;7.20;99.90;;;;;;5051337;28;20083;-83
2023/12/05 07:26:04;;;;;;;1.33;0.60;;;7.20;99.90;;;;;;5055768;28;20512;-81
2023/12/05 07:28:31;;;;;;;2.85;0.80;;;7.20;99.90;;;;;;5053252;28;20049;-82
2023/12/05 07:30:57;;;;;;;2.17;0.65;;;7.10;99.90;;;;;;5055322;28;20045;-80
2023/12/05 07:33:24;;;;;;;2.15;0.82;;;7.20;99.90;;;;;;5057433;28;20527;-78
2023/12/05 07:35:51;;;;;;;3.72;0.95;;;7.10;99.90;;;;;;5054230;28;20091;-80
2023/12/05 07:38:18;;;;;;;1.98;0.80;;;7.20;99.90;;;;;;5050757;28;20103;-81
2023/12/05 07:40:44;;;;;;;2.55;0.73;;;7.20;99.90;;;;;;5052837;28;20052;-80
2023/12/05 07:43:11;;;;;;;1.67;0.70;;;7.20;99.90;;;;;;5038548;28;20060;-81
2023/12/05 07:45:38;;;;;;;1.95;0.95;;;7.20;99.90;;;;;;5053376;28;20578;-80
2023/12/05 07:48:05;;;;;;;1.33;0.50;;;7.20;99.90;;;;;;5050282;28;20484;-80
2023/12/05 07:50:32;;;;;;;2.22;0.52;;;7.20;99.90;;;;;;5055421;28;20068;-81
2023/12/05 07:52:59;;;;;;;1.33;0.70;;;7.20;99.90;;;;;;5051820;28;20049;-80
2023/12/05 07:55:25;;;;;;;1.10;0.52;;;7.20;99.90;;;;;;5056541;28;20111;-79
2023/12/05 07:57:52;;;;;;;2.85;0.85;;;7.20;99.90;;;;;;5057854;28;20365;-79
2023/12/05 08:00:19;;;;;;;3.28;0.70;;;7.20;99.90;;;;;;5056911;28;20045;-80
2023/12/05 08:02:47;;;;;;;1.52;0.47;;;7.20;99.90;;;;;;5055489;28;20049;-81
2023/12/05 08:05:13;;;;;;;1.48;0.60;;;7.20;99.90;;;;;;5055964;28;20111;-79
2023/12/05 08:07:40;;;;;;;6.38;0.70;;;7.20;99.90;;;;;;5057407;28;20102;-80
2023/12/05 08:10:09;;;;;;;1.75;0.77;;;7.20;99.90;;;;;;5048545;28;20053;-79
2023/12/05 08:12:36;;;;;;;3.58;0.82;;;7.20;99.90;;;;;;5052781;28;20053;-79
2023/12/05 08:15:03;;;;;;;5.72;0.95;;;7.20;99.90;;;;;;5036191;28;20045;-82
2023/12/05 08:17:30;;;;;;;2.40;0.60;;;7.20;99.90;;;;;;5050132;28;20045;-81
2023/12/05 08:19:57;;;;;;;2.65;0.70;;;7.20;99.90;;;;;;5053191;28;20512;-80
2023/12/05 08:22:25;;;;;;;2.60;0.88;;;7.20;99.90;;;;;;5036632;28;20491;-79
2023/12/05 08:24:52;;;;;;;1.23;0.70;;;7.20;99.90;;;;;;5050786;28;20045;-78
2023/12/05 08:27:19;;;;;;;3.20;1.23;;;7.30;99.90;;;;;;5048852;28;20053;-80
2023/12/05 08:29:46;;;;;;;3.70;1.13;;;7.30;99.90;;;;;;5049455;28;20044;-78
2023/12/05 08:32:12;;;;;;;4.72;0.80;;;7.30;99.90;;;;;;5052428;28;20103;-80
2023/12/05 08:34:39;;;;;;;1.75;0.70;;;7.30;99.90;;;;;;5048664;28;20052;-81
2023/12/05 08:37:06;;;;;;;2.20;0.80;;;7.30;99.90;;;;;;5053374;28;20055;-80
2023/12/05 08:39:33;;;;;;;1.27;0.73;;;7.30;99.90;;;;;;5047651;28;20286;-80
2023/12/05 08:41:59;;;;;;;1.40;0.85;;;7.40;99.90;;;;;;5054668;28;20067;-83
2023/12/05 08:44:27;;;;;;;3.83;0.85;;;7.40;99.90;;;;;;5050161;28;20088;-79
2023/12/05 08:46:54;;;;;;;3.50;0.93;;;7.40;99.90;;;;;;5053520;28;20415;-80
2023/12/05 08:49:20;;;;;;;2.22;0.77;;;7.40;99.90;;;;;;5052417;28;20488;-81
2023/12/05 08:51:47;;;;;;;2.70;0.85;;;7.40;99.90;;;;;;5045174;28;20094;-83
2023/12/05 08:54:14;;;;;;;2.25;1.02;;;7.40;99.90;;;;;;5052440;28;20054;-80
2023/12/05 08:56:41;;;;;;;3.92;0.93;;;7.40;99.90;;;;;;5055660;28;20496;-80
2023/12/05 08:59:08;;;;;;;1.90;0.88;;;7.50;99.90;;;;;;5033977;28;20515;-83
2023/12/05 09:01:34;;;;;;;4.35;0.70;;;7.50;99.90;;;;;;5046615;28;20060;-81
2023/12/05 09:04:02;;;;;;;1.33;0.73;;;7.50;99.90;;;;;;5053614;28;20056;-80
2023/12/05 09:06:29;;;;;;;4.43;0.80;;;7.50;99.90;;;;;;5047746;28;20077;-81
2023/12/05 09:08:57;;;;;;;0.77;0.50;;;7.50;99.90;;;;;;5053031;28;20488;-84
2023/12/05 09:11:24;;;;;;;2.50;1.17;;;7.50;99.90;;;;;;5045447;28;20061;-81
2023/12/05 09:13:51;;;;;;;1.45;0.75;;;7.50;99.90;;;;;;5051978;28;20114;-80
2023/12/05 09:16:18;;;;;;;3.42;1.00;;;7.50;99.90;;;;;;5048688;28;20107;-81
2023/12/05 09:18:44;;;;;;;3.13;1.02;;;7.50;99.90;;;;;;5050896;28;20056;-83
2023/12/05 09:21:11;;;;;;;2.08;0.80;;;7.40;99.90;;;;;;5048791;28;20541;-79
2023/12/05 09:23:38;;;;;;;5.88;0.90;;;7.40;99.90;;;;;;5054058;28;20045;-81
2023/12/05 09:26:05;;;;;;;2.28;1.13;;;7.40;99.90;;;;;;5051685;28;20095;-79
2023/12/05 09:28:34;;;;;;;2.20;1.38;;;7.40;99.90;;;;;;5051947;28;20052;-80
2023/12/05 09:31:00;;;;;;;1.52;0.85;;;7.40;99.90;;;;;;5054023;28;20488;-79
2023/12/05 09:33:27;;;;;;;4.78;1.25;;;7.50;99.90;;;;;;5047413;28;20049;-83
2023/12/05 09:35:54;;;;;;;6.18;1.88;;;7.50;99.90;;;;;;5051211;28;20045;-82
2023/12/05 09:38:21;;;;;;;4.32;1.30;;;7.50;99.90;;;;;;5028514;28;20053;-80
2023/12/05 09:40:51;;;;;;;2.45;1.17;;;7.50;99.90;;;;;;5052576;28;20120;-81
2023/12/05 09:43:23;;;;;;;1.90;0.95;;;7.40;99.90;;;;;;5048866;28;20049;-81
2023/12/05 09:46:02;;;;;;;1.63;0.63;;;7.50;99.90;;;;;;5036998;28;20041;-82
2023/12/05 09:48:37;;;;;;;1.98;0.70;;;7.50;99.90;;;;;;5047143;28;20098;-82
2023/12/05 09:51:05;;;;;;;2.92;0.93;;;7.50;99.90;;;;;;5054089;28;20053;-79
2023/12/05 09:53:32;;;;;;;1.23;0.63;;;7.40;99.90;;;;;;5054005;28;20056;-82
2023/12/05 09:56:00;;;;;;;3.20;1.13;;;7.40;99.90;;;;;;5056999;28;20048;-78
2023/12/05 09:58:27;;;;;;;1.40;0.60;;;7.40;99.90;;;;;;5028412;28;20049;-82
2023/12/05 10:00:56;;;;;;;1.77;0.90;;;7.40;99.90;;;;;;5049610;28;20554;-83
2023/12/05 10:03:23;;;;;;;2.35;1.00;;;7.40;99.90;;;;;;5050169;28;20051;-81
2023/12/05 10:05:51;;;;;;;2.83;1.10;;;7.40;99.90;;;;;;5031052;28;20104;-81
2023/12/05 10:08:20;;;;;;;1.73;0.90;;;7.40;99.90;;;;;;5049815;28;20049;-80
2023/12/05 10:10:48;;;;;;;1.73;0.70;;;7.40;99.90;;;;;;5045018;28;20045;-83
2023/12/05 10:13:17;;;;;;;5.00;0.93;;;7.50;99.90;;;;;;5051689;28;20064;-80
2023/12/05 10:15:43;;;;;;;3.65;0.77;;;7.50;99.90;;;;;;5050335;28;20542;-81
2023/12/05 10:18:10;;;;;;;1.95;0.55;;;7.60;99.90;;;;;;5050938;28;20060;-81
2023/12/05 10:20:38;;;;;;;3.25;0.85;;;7.60;99.90;;;;;;5047766;28;20120;-81
2023/12/05 10:23:05;;;;;;;3.70;0.70;;;7.60;99.90;;;;;;5050727;28;20056;-79
2023/12/05 10:25:32;;;;;;;2.35;0.90;;;7.60;99.90;;;;;;5044927;28;20126;-81
2023/12/05 10:28:04;;;;;;;4.05;0.85;;;7.70;99.90;;;;;;5053182;28;20539;-81
2023/12/05 10:30:32;;;;;;;3.47;0.90;;;7.70;99.90;;;;;;5043234;28;20102;-81
2023/12/05 10:33:16;;;;;;;2.75;0.80;;;7.70;99.90;;;;;;5050827;28;20048;-81
2023/12/05 10:35:45;;;;;;;1.20;0.80;;;7.70;99.90;;;;;;5052106;28;20128;-80
2023/12/05 10:38:15;;;;;;;2.42;0.82;;;7.70;99.90;;;;;;5055326;28;20060;-81
2023/12/05 10:40:55;;;;;;;;;;;7.60;99.90;;;;;;5050729;28;20108;-83
2023/12/05 10:43:24;;;;;;;3.75;0.80;;;7.60;99.90;;;;;;5051062;28;19920;-81
2023/12/05 10:45:51;;;;;;;1.63;0.73;;;7.60;99.90;;;;;;5049375;28;20094;-81
2023/12/05 10:48:18;;;;;;;4.80;0.95;;;7.50;99.90;;;;;;5050614;28;20053;-79
2023/12/05 10:50:48;;;;;;;2.65;0.90;;;7.50;99.90;;;;;;5051430;28;20057;-79
2023/12/05 10:53:15;;;;;;;5.32;1.50;;;7.50;99.90;;;;;;5046855;28;20102;-80
2023/12/05 10:55:42;;;;;;;2.90;1.00;;;7.50;99.90;;;;;;5050635;28;20057;-83
2023/12/05 10:58:09;;;;;;;3.33;1.25;;;7.50;99.90;;;;;;5053489;28;20082;-80
2023/12/05 11:00:37;;;;;;;2.05;0.82;;;7.40;99.90;;;;;;5035048;28;20549;-82
2023/12/05 11:03:04;;;;;;;3.92;1.20;;;7.40;99.90;;;;;;5052735;28;20045;-79
2023/12/05 11:05:33;;;;;;;1.90;0.75;;;7.40;99.90;;;;;;5053141;28;20052;-80
2023/12/05 11:08:01;;;;;;;6.57;1.30;;;7.40;99.90;;;;;;5049526;28;20079;-78
2023/12/05 11:10:28;;;;;;;3.65;1.13;;;7.40;99.90;;;;;;5046561;28;20528;-77
2023/12/05 11:12:58;;;;;;;7.72;1.60;;;7.40;99.90;;;;;;5051896;28;20044;-78
2023/12/05 11:15:31;;;;;;;5.78;1.60;;;7.40;99.90;;;;;;5031321;28;20132;-77
2023/12/05 11:18:00;;;;;;;4.55;1.10;;;7.40;99.90;;;;;;5044540;28;20037;-80
2023/12/05 11:20:41;;;;;;;5.07;1.13;;;7.50;99.90;;;;;;5049813;28;20045;-79
2023/12/05 11:23:16;;;;;;;;;;;7.50;99.90;;;;;;5045377;28;20467;-80
2023/12/05 11:25:58;;;;;;;3.53;1.10;;;7.50;99.90;;;;;;5051625;28;20365;-80
2023/12/05 11:28:30;;;;;;;6.55;1.52;;;7.60;99.90;;;;;;5044290;28;20053;-77
2023/12/05 11:31:24;;;;;;;4.90;1.30;;;7.70;99.90;;;;;;5054198;28;20501;-83
2023/12/05 11:34:10;;;;;;;4.25;0.80;;;7.80;99.90;;;;;;5049960;28;20056;-79
2023/12/05 11:37:06;;;;;;;2.65;1.15;;;7.80;99.90;;;;;;5048106;28;20049;-78
2023/12/05 11:39:33;;;;;;;8.77;1.52;;;7.90;99.90;;;;;;5018959;28;20049;-79
2023/12/05 11:42:11;;;;;;;3.95;1.50;;;8.00;99.90;;;;;;5044919;28;20045;-80
2023/12/05 11:44:39;;;;;;;4.50;1.27;;;8.10;99.90;;;;;;5039302;28;20049;-78
2023/12/05 11:47:27;;;;;;;5.10;2.25;;;8.10;99.90;;;;;;5048289;28;20702;-80
2023/12/05 11:49:59;;;;;;;3.70;1.17;;;8.20;99.90;;;;;;5052796;28;20072;-79
2023/12/05 11:52:27;;;;;;;2.83;1.23;;;8.30;99.90;;;;;;5049363;28;20053;-80
2023/12/05 11:54:54;;;;;;;2.10;0.70;;;8.30;99.90;;;;;;5049408;28;20050;-81
2023/12/05 11:57:23;;;;;;;4.65;1.20;;;8.40;99.90;;;;;;5048930;28;20053;-79
2023/12/05 11:59:52;;;;;;;3.55;1.40;;;8.40;99.90;;;;;;5051806;28;20049;-79
2023/12/05 12:02:30;;;;;;;4.50;2.05;;;8.30;99.90;;;;;;5051348;28;20045;-81
2023/12/05 12:05:00;;;;;;;3.60;1.25;;;8.30;99.90;;;;;;5033184;28;20188;-81
2023/12/05 12:07:28;;;;;;;5.03;1.20;;;8.20;99.90;;;;;;5050191;28;20041;-79
2023/12/05 12:09:55;;;;;;;4.65;1.40;;;8.30;99.90;;;;;;5046402;28;20060;-79
2023/12/05 12:12:22;;;;;;;8.05;1.38;;;8.20;99.90;;;;;;5055105;28;20057;-78
2023/12/05 12:14:49;;;;;;;2.80;1.10;;;8.30;99.90;;;;;;5049560;28;20406;-78
2023/12/05 12:17:16;;;;;;;4.10;1.00;;;8.30;99.90;;;;;;5055737;28;20505;-79
2023/12/05 12:19:43;;;;;;;5.22;0.93;;;8.30;99.90;;;;;;5041567;28;20053;-80
2023/12/05 12:22:14;;;;;;;5.05;1.27;;;8.20;99.90;;;;;;5052634;28;20041;-79
2023/12/05 12:24:41;;;;;;;5.97;1.38;;;8.20;99.90;;;;;;5048601;28;20148;-79
2023/12/05 12:27:08;;;;;;;7.40;1.20;;;8.20;99.90;;;;;;5051757;28;20079;-79
2023/12/05 12:29:36;;;;;;;3.85;1.13;;;8.20;99.90;;;;;;5049488;28;20071;-80
2023/12/05 12:32:08;;;;;;;6.20;1.65;;;8.20;99.90;;;;;;5033750;28;20053;-78
2023/12/05 12:34:36;;;;;;;5.25;1.33;;;8.20;99.90;;;;;;5051855;28;20196;-79
2023/12/05 12:37:05;;;;;;;4.93;1.10;;;8.20;99.90;;;;;;5052610;28;20056;-81
2023/12/05 12:39:44;;;;;;;3.58;1.27;;;8.20;99.90;;;;;;5031531;28;20045;-81
2023/12/05 12:42:11;;;;;;;8.48;1.23;;;8.20;99.90;;;;;;5052824;28;20048;-79
2023/12/05 12:44:38;;;;;;;3.53;1.50;;;8.20;99.90;;;;;;5044579;28;20076;-80
2023/12/05 12:47:06;;;;;;;10.25;1.70;;;8.20;99.90;;;;;;5046641;28;20147;-78
2023/12/05 12:49:37;;;;;;;2.70;1.27;;;8.20;99.90;;;;;;5050787;28;20143;-80
2023/12/05 12:52:04;;;;;;;2.92;1.20;;;8.20;99.90;;;;;;5046077;28;20053;-82
2023/12/05 12:54:32;;;;;;;3.03;0.90;;;8.20;99.90;;;;;;5031138;28;20049;-82
2023/12/05 12:56:59;;;;;;;5.18;0.85;;;8.20;99.90;;;;;;5048954;28;20501;-80
2023/12/05 12:59:26;;;;;;;4.20;1.10;;;8.20;99.90;;;;;;5050690;28;20087;-78
2023/12/05 13:01:53;;;;;;;5.03;1.10;;;8.20;99.90;;;;;;5054467;28;20519;-81
2023/12/05 13:04:20;;;;;;;4.28;1.23;;;8.20;99.90;;;;;;5051062;28;20079;-79